createdAt,value
2023-03-15T00:00:33.344Z,8.15
2023-03-15T00:03:04.238Z,4.72
2023-03-15T00:05:31.984Z,2.63
2023-03-15T00:07:59.396Z,4.78
2023-03-15T00:10:26.523Z,2.58
2023-03-15T00:12:53.674Z,3.58
2023-03-15T00:15:21.099Z,1.88
2023-03-15T00:17:48.393Z,3.97
2023-03-15T00:20:15.536Z,3.17
2023-03-15T00:22:42.839Z,3.15
2023-03-15T00:25:10.232Z,3.60
2023-03-15T00:27:37.383Z,4.05
2023-03-15T00:30:04.917Z,2.25
2023-03-15T00:32:32.034Z,2.50
2023-03-15T00:34:59.175Z,3.90
2023-03-15T00:37:26.347Z,4.00
2023-03-15T00:39:55.868Z,2.70
2023-03-15T00:42:27.632Z,1.35
2023-03-15T00:44:55.909Z,4.93
2023-03-15T00:47:23.511Z,1.95
2023-03-15T00:49:50.918Z,2.05
2023-03-15T00:52:19.050Z,2.63
2023-03-15T00:54:52.290Z,2.75
2023-03-15T00:57:19.968Z,2.00
2023-03-15T00:59:47.386Z,3.67
2023-03-15T01:02:14.531Z,2.15
2023-03-15T01:04:41.653Z,5.82
2023-03-15T01:07:08.894Z,3.47
2023-03-15T01:09:36.128Z,2.50
2023-03-15T01:12:03.205Z,2.55
2023-03-15T01:14:30.532Z,2.95
2023-03-15T01:16:57.606Z,3.15
2023-03-15T01:19:24.908Z,4.88
2023-03-15T01:21:52.056Z,2.92
2023-03-15T01:24:19.218Z,2.22
2023-03-15T01:26:46.369Z,5.82
2023-03-15T01:29:13.588Z,1.77
2023-03-15T01:31:41.056Z,4.38
2023-03-15T01:34:08.847Z,3.28
2023-03-15T01:36:36.017Z,2.42
2023-03-15T01:39:03.184Z,1.42
2023-03-15T01:41:30.298Z,1.35
2023-03-15T01:43:57.463Z,3.42
2023-03-15T01:46:26.108Z,4.93
2023-03-15T01:48:53.174Z,2.70
2023-03-15T01:51:25.266Z,1.73
2023-03-15T01:53:58.686Z,3.70
2023-03-15T01:56:27.238Z,3.55
2023-03-15T01:58:54.462Z,2.97
2023-03-15T02:01:22.175Z,2.15
2023-03-15T02:03:53.628Z,2.08
2023-03-15T02:06:21.692Z,5.72
2023-03-15T02:08:59.155Z,2.70
2023-03-15T02:11:27.269Z,2.85
2023-03-15T02:13:55.535Z,2.90
2023-03-15T02:16:23.335Z,4.05
2023-03-15T02:18:50.481Z,2.92
2023-03-15T02:21:26.970Z,3.55
2023-03-15T02:24:20.456Z,2.72
2023-03-15T02:27:05.833Z,3.80
2023-03-15T02:29:33.132Z,5.50
2023-03-15T02:32:00.944Z,2.95
2023-03-15T02:34:28.118Z,4.30
2023-03-15T02:36:55.669Z,1.67
2023-03-15T02:39:23.649Z,5.38
2023-03-15T02:41:58.518Z,2.38
2023-03-15T02:44:33.553Z,5.60
2023-03-15T02:47:21.095Z,2.40
2023-03-15T02:49:51.415Z,3.72
2023-03-15T02:52:18.584Z,6.45
2023-03-15T02:54:45.865Z,3.13
2023-03-15T02:57:16.854Z,2.88
2023-03-15T02:59:44.058Z,5.57
2023-03-15T03:02:12.461Z,4.38
2023-03-15T03:04:39.983Z,7.15
2023-03-15T03:07:07.143Z,3.97
2023-03-15T03:09:34.513Z,4.40
2023-03-15T03:12:01.637Z,4.63
2023-03-15T03:14:28.811Z,4.80
2023-03-15T03:16:55.985Z,4.90
2023-03-15T03:19:25.710Z,4.60
2023-03-15T03:21:53.537Z,6.72
2023-03-15T03:24:21.402Z,5.93
2023-03-15T03:26:48.534Z,9.00
2023-03-15T03:29:16.570Z,7.28
2023-03-15T03:31:45.305Z,5.50
2023-03-15T03:34:15.537Z,8.32
2023-03-15T03:36:45.797Z,9.27
2023-03-15T03:39:12.956Z,8.93
2023-03-15T03:41:40.410Z,7.88
2023-03-15T03:44:07.583Z,11.98
2023-03-15T03:46:36.244Z,9.52
2023-03-15T03:49:03.524Z,8.70
2023-03-15T03:51:30.942Z,8.45
2023-03-15T03:53:58.134Z,8.35
2023-03-15T03:56:25.368Z,6.57
2023-03-15T03:58:52.619Z,11.30
2023-03-15T04:01:19.885Z,8.82
2023-03-15T04:03:47.007Z,9.23
2023-03-15T04:06:14.196Z,8.95
2023-03-15T04:08:41.691Z,6.45
2023-03-15T04:11:08.833Z,6.95
2023-03-15T04:13:36.132Z,8.55
2023-03-15T04:16:03.941Z,7.65
2023-03-15T04:18:31.315Z,7.13
2023-03-15T04:20:58.754Z,7.35
2023-03-15T04:23:25.884Z,7.47
2023-03-15T04:25:55.278Z,6.95
2023-03-15T04:28:22.915Z,8.32
2023-03-15T04:30:51.108Z,6.22
2023-03-15T04:33:18.279Z,9.30
2023-03-15T04:35:45.469Z,8.35
2023-03-15T04:38:12.640Z,7.75
2023-03-15T04:40:39.768Z,8.73
2023-03-15T04:43:06.876Z,8.73
2023-03-15T04:45:34.275Z,7.50
2023-03-15T04:48:02.053Z,10.48
2023-03-15T04:50:29.615Z,6.22
2023-03-15T04:52:58.736Z,7.25
2023-03-15T04:55:25.856Z,11.07
2023-03-15T04:57:53.056Z,7.78
2023-03-15T05:00:20.389Z,7.38
2023-03-15T05:02:54.682Z,6.28
2023-03-15T05:05:23.662Z,6.97
2023-03-15T05:07:50.837Z,6.88
2023-03-15T05:10:18.301Z,7.78
2023-03-15T05:12:45.452Z,7.85
2023-03-15T05:15:12.689Z,10.13
2023-03-15T05:17:39.867Z,7.45
2023-03-15T05:20:12.013Z,9.43
2023-03-15T05:22:41.931Z,8.63
2023-03-15T05:25:10.375Z,9.13
2023-03-15T05:27:38.267Z,13.80
2023-03-15T05:30:05.822Z,7.45
2023-03-15T05:32:37.611Z,6.45
2023-03-15T05:35:05.074Z,8.50
2023-03-15T05:37:33.008Z,7.95
2023-03-15T05:40:01.456Z,7.53
2023-03-15T05:42:29.365Z,6.03
2023-03-15T05:44:57.249Z,8.07
2023-03-15T05:47:24.727Z,7.93
2023-03-15T05:49:52.449Z,5.38
2023-03-15T05:52:19.556Z,6.50
2023-03-15T05:54:46.861Z,8.38
2023-03-15T05:57:14.041Z,7.82
2023-03-15T05:59:41.630Z,6.93
2023-03-15T06:02:08.839Z,6.80
2023-03-15T06:04:37.885Z,7.00
2023-03-15T06:07:05.454Z,8.15
2023-03-15T06:09:32.665Z,9.68
2023-03-15T06:12:00.064Z,4.80
2023-03-15T06:14:28.116Z,8.25
2023-03-15T06:16:55.461Z,7.68
2023-03-15T06:19:22.946Z,6.03
2023-03-15T06:21:50.200Z,7.85
2023-03-15T06:24:17.436Z,8.00
2023-03-15T06:26:44.627Z,6.03
2023-03-15T06:29:11.815Z,5.80
2023-03-15T06:31:38.918Z,6.70
2023-03-15T06:34:06.038Z,5.65
2023-03-15T06:36:33.383Z,7.72
2023-03-15T06:39:00.518Z,6.60
2023-03-15T06:41:27.681Z,4.57
2023-03-15T06:43:54.814Z,9.63
2023-03-15T06:46:21.978Z,9.55
2023-03-15T06:48:49.099Z,7.65
2023-03-15T06:51:16.380Z,8.75
2023-03-15T06:53:43.491Z,9.63
2023-03-15T06:56:10.646Z,10.48
2023-03-15T06:58:37.764Z,9.30
2023-03-15T07:01:05.131Z,6.55
2023-03-15T07:03:32.447Z,7.95
2023-03-15T07:05:59.626Z,10.85
2023-03-15T07:08:26.785Z,5.93
2023-03-15T07:10:53.988Z,4.63
2023-03-15T07:13:21.993Z,8.90
2023-03-15T07:15:53.108Z,7.57
2023-03-15T07:18:20.935Z,7.60
2023-03-15T07:20:48.033Z,6.90
2023-03-15T07:23:15.168Z,6.18
2023-03-15T07:25:54.364Z,6.85
2023-03-15T07:28:22.425Z,10.35
2023-03-15T07:30:59.939Z,7.80
2023-03-15T07:33:27.743Z,6.38
2023-03-15T07:35:55.581Z,4.63
2023-03-15T07:38:23.316Z,5.45
2023-03-15T07:40:50.538Z,5.90
2023-03-15T07:43:17.712Z,7.85
2023-03-15T07:45:44.879Z,8.88
2023-03-15T07:48:12.054Z,14.35
2023-03-15T07:50:39.589Z,10.43
2023-03-15T07:53:06.781Z,10.27
2023-03-15T07:55:34.246Z,8.70
2023-03-15T07:58:01.660Z,9.30
2023-03-15T08:00:29.215Z,11.88
2023-03-15T08:02:56.366Z,9.27
2023-03-15T08:05:24.284Z,7.63
2023-03-15T08:07:51.479Z,7.15
2023-03-15T08:10:18.942Z,6.53
2023-03-15T08:12:46.280Z,9.52
2023-03-15T08:15:14.458Z,8.30
2023-03-15T08:17:41.974Z,7.43
2023-03-15T08:20:14.959Z,6.05
2023-03-15T08:22:45.892Z,7.32
2023-03-15T08:25:14.169Z,8.50
2023-03-15T08:27:42.798Z,10.60
2023-03-15T08:30:12.483Z,11.10
2023-03-15T08:32:43.879Z,5.53
2023-03-15T08:35:15.179Z,6.32
2023-03-15T08:37:47.424Z,8.25
2023-03-15T08:40:23.774Z,7.13
2023-03-15T08:42:51.404Z,6.50
2023-03-15T08:45:18.733Z,8.35
2023-03-15T08:47:45.868Z,6.40
2023-03-15T08:50:14.525Z,8.75
2023-03-15T08:55:09.248Z,19.45
2023-03-15T08:57:36.965Z,8.25
2023-03-15T09:00:25.809Z,13.88
2023-03-15T09:02:53.333Z,5.80
2023-03-15T09:05:21.412Z,18.73
2023-03-15T09:07:48.811Z,7.43
2023-03-15T09:10:16.631Z,15.30
2023-03-15T09:12:45.035Z,7.30
2023-03-15T09:15:12.576Z,11.40
2023-03-15T09:17:40.301Z,11.48
2023-03-15T09:20:11.383Z,11.25
2023-03-15T09:22:39.782Z,3.05
2023-03-15T09:25:07.547Z,6.05
2023-03-15T09:27:34.794Z,8.27
2023-03-15T09:30:02.148Z,7.18
2023-03-15T09:32:29.312Z,7.75
2023-03-15T09:34:56.531Z,3.25
2023-03-15T09:37:23.876Z,5.68
2023-03-15T09:39:51.942Z,6.18
2023-03-15T09:42:33.520Z,6.63
2023-03-15T09:45:23.408Z,5.63
2023-03-15T09:47:59.535Z,5.57
2023-03-15T09:50:30.357Z,7.10
2023-03-15T09:53:05.652Z,3.67
2023-03-15T09:55:33.162Z,7.88
2023-03-15T09:58:04.058Z,7.72
2023-03-15T10:00:48.419Z,6.72
2023-03-15T10:03:21.748Z,6.35
2023-03-15T10:05:53.291Z,5.72
2023-03-15T10:08:20.680Z,6.00
2023-03-15T10:11:06.687Z,8.02
2023-03-15T10:13:43.013Z,5.13
2023-03-15T10:16:13.289Z,7.18
2023-03-15T10:18:52.369Z,7.63
2023-03-15T10:21:39.919Z,4.60
2023-03-15T10:24:11.197Z,6.07
2023-03-15T10:26:39.914Z,5.95
2023-03-15T10:29:13.194Z,7.40
2023-03-15T10:31:44.786Z,6.35
2023-03-15T10:34:12.166Z,5.28
2023-03-15T10:36:44.191Z,7.10
2023-03-15T10:39:12.949Z,5.43
2023-03-15T10:44:25.328Z,8.68
2023-03-15T10:47:06.958Z,8.00
2023-03-15T10:49:41.352Z,4.65
2023-03-15T10:52:25.565Z,4.85
2023-03-15T10:54:58.813Z,6.85
2023-03-15T10:57:35.369Z,6.97
2023-03-15T11:00:09.847Z,4.78
2023-03-15T11:02:37.727Z,5.22
2023-03-15T11:05:15.255Z,4.20
2023-03-15T11:07:56.695Z,4.75
2023-03-15T11:10:25.511Z,4.90
2023-03-15T11:15:19.785Z,5.53
2023-03-15T11:17:48.426Z,4.60
2023-03-15T11:20:27.395Z,6.10
2023-03-15T11:22:55.153Z,4.30
2023-03-15T11:25:25.004Z,6.10
2023-03-15T11:27:53.614Z,4.70
2023-03-15T11:30:26.264Z,3.25
2023-03-15T11:32:54.139Z,6.53
2023-03-15T11:35:28.906Z,5.22
2023-03-15T11:38:15.173Z,3.20
2023-03-15T11:40:49.942Z,4.75
2023-03-15T11:43:48.942Z,4.53
2023-03-15T11:46:22.796Z,4.53
2023-03-15T11:48:56.513Z,2.83
2023-03-15T11:51:23.720Z,4.70
2023-03-15T11:54:07.789Z,4.28
2023-03-15T11:56:44.004Z,8.13
2023-03-15T11:59:21.992Z,4.85
2023-03-15T12:01:50.835Z,16.83
2023-03-15T12:06:45.009Z,4.38
2023-03-15T12:09:30.846Z,6.15
2023-03-15T12:12:05.520Z,7.38
2023-03-15T12:14:32.938Z,8.20
2023-03-15T12:17:18.854Z,3.13
2023-03-15T12:19:46.092Z,8.57
2023-03-15T12:22:17.005Z,8.38
2023-03-15T12:24:45.572Z,3.95
2023-03-15T12:29:39.989Z,19.35
2023-03-15T12:32:07.632Z,4.18
2023-03-15T12:34:43.977Z,2.30
2023-03-15T12:37:16.634Z,3.63
2023-03-15T12:39:47.920Z,7.18
2023-03-15T12:42:33.144Z,5.63
2023-03-15T12:45:18.604Z,6.75
2023-03-15T12:47:45.784Z,3.05
2023-03-15T12:50:31.774Z,3.15
2023-03-15T12:53:00.697Z,3.45
2023-03-15T12:55:35.034Z,2.15
2023-03-15T12:58:04.677Z,5.57
2023-03-15T13:00:33.408Z,6.57
2023-03-15T13:03:06.424Z,5.35
2023-03-15T13:05:37.488Z,3.80
2023-03-15T13:08:21.422Z,2.83
2023-03-15T13:10:51.627Z,4.07
2023-03-15T13:13:18.781Z,3.45
2023-03-15T13:15:54.607Z,8.00
2023-03-15T13:18:23.889Z,6.07
2023-03-15T13:21:10.177Z,6.25
2023-03-15T13:23:37.693Z,5.10
2023-03-15T13:26:20.144Z,3.13
2023-03-15T13:28:49.398Z,7.10
2023-03-15T13:31:19.649Z,6.78
2023-03-15T13:34:00.264Z,1.65
2023-03-15T13:36:40.879Z,6.25
2023-03-15T13:39:19.852Z,5.22
2023-03-15T13:41:47.400Z,3.83
2023-03-15T13:44:21.690Z,4.28
2023-03-15T13:46:50.101Z,6.00
2023-03-15T13:49:17.425Z,4.43
2023-03-15T13:51:45.293Z,5.80
2023-03-15T13:54:16.832Z,8.35
2023-03-15T13:56:58.734Z,9.93
2023-03-15T13:59:28.355Z,9.50
2023-03-15T14:01:57.213Z,2.45
2023-03-15T14:04:25.324Z,5.40
2023-03-15T14:07:03.512Z,4.68
2023-03-15T14:09:30.646Z,3.58
2023-03-15T14:12:02.485Z,8.00
2023-03-15T14:14:31.233Z,3.13
2023-03-15T14:19:34.881Z,3.38
2023-03-15T14:22:14.165Z,9.77
2023-03-15T14:24:43.962Z,5.50
2023-03-15T14:27:18.840Z,5.32
2023-03-15T14:32:24.385Z,2.45
2023-03-15T14:34:51.534Z,2.33
2023-03-15T14:37:38.713Z,5.28
2023-03-15T14:42:36.079Z,3.83
2023-03-15T14:45:03.394Z,1.90
2023-03-15T14:47:30.796Z,2.78
2023-03-15T14:49:58.301Z,2.67
2023-03-15T14:52:26.977Z,4.30
2023-03-15T14:57:21.167Z,2.35
2023-03-15T14:59:50.390Z,3.05
2023-03-15T15:02:18.684Z,1.60
2023-03-15T15:04:48.214Z,2.88
2023-03-15T15:07:17.477Z,2.50
2023-03-15T15:09:47.257Z,1.98
2023-03-15T15:12:14.617Z,6.25
2023-03-15T15:14:42.962Z,3.13
2023-03-15T15:17:10.295Z,3.42
2023-03-15T15:19:37.959Z,3.83
2023-03-15T15:22:05.212Z,3.83
2023-03-15T15:24:32.361Z,4.55
2023-03-15T15:26:59.730Z,4.38
2023-03-15T15:29:27.125Z,4.63
2023-03-15T15:31:54.254Z,4.60
2023-03-15T15:34:21.457Z,2.55
2023-03-15T15:36:48.757Z,3.13
2023-03-15T15:39:27.609Z,4.18
2023-03-15T15:41:55.147Z,5.32
2023-03-15T15:44:23.988Z,6.53
2023-03-15T15:46:51.535Z,6.63
2023-03-15T15:49:20.366Z,4.78
2023-03-15T15:54:40.089Z,3.95
2023-03-15T15:57:08.012Z,2.05
2023-03-15T15:59:35.420Z,2.40
2023-03-15T16:02:03.037Z,3.35
2023-03-15T16:04:30.860Z,5.05
2023-03-15T16:07:00.060Z,1.90
2023-03-15T16:09:28.125Z,2.40
2023-03-15T16:11:55.719Z,5.13
2023-03-15T16:14:23.004Z,3.75
2023-03-15T16:16:50.761Z,5.20
2023-03-15T16:19:17.984Z,4.22
2023-03-15T16:21:47.611Z,3.47
2023-03-15T16:24:20.104Z,3.65
2023-03-15T16:26:47.826Z,3.78
2023-03-15T16:29:18.240Z,2.33
2023-03-15T16:31:45.772Z,1.50
2023-03-15T16:34:13.879Z,3.83
2023-03-15T16:36:46.093Z,3.53
2023-03-15T16:39:16.432Z,2.08
2023-03-15T16:41:43.608Z,5.00
2023-03-15T16:46:40.956Z,2.67
2023-03-15T16:49:08.636Z,4.07
2023-03-15T16:51:36.757Z,2.95
2023-03-15T16:54:16.128Z,2.50
2023-03-15T16:59:16.614Z,4.18
2023-03-15T17:04:18.320Z,4.28
2023-03-15T17:06:47.028Z,1.65
2023-03-15T17:09:31.215Z,4.20
2023-03-15T17:11:58.385Z,5.97
2023-03-15T17:14:46.693Z,3.75
2023-03-15T17:17:13.978Z,5.45
2023-03-15T17:19:42.683Z,8.82
2023-03-15T17:22:17.083Z,4.40
2023-03-15T17:24:44.720Z,8.73
2023-03-15T17:27:20.308Z,8.55
2023-03-15T17:29:48.189Z,5.45
2023-03-15T17:32:16.095Z,5.40
2023-03-15T17:34:47.257Z,4.70
2023-03-15T17:37:15.833Z,7.68
2023-03-15T17:39:44.608Z,8.20
2023-03-15T17:42:16.146Z,6.40
2023-03-15T17:44:43.488Z,8.57
2023-03-15T17:47:11.841Z,5.13
2023-03-15T17:49:39.280Z,17.85
2023-03-15T17:52:11.757Z,16.80
2023-03-15T17:58:02.333Z,5.30
2023-03-15T18:00:32.650Z,8.35
2023-03-15T18:03:01.083Z,5.53
2023-03-15T18:05:29.541Z,8.38
2023-03-15T18:08:00.149Z,8.15
2023-03-15T18:10:32.464Z,4.95
2023-03-15T18:12:59.850Z,7.78
2023-03-15T18:15:27.386Z,6.45
2023-03-15T18:17:55.151Z,7.57
2023-03-15T18:20:24.200Z,5.32
2023-03-15T18:22:52.017Z,6.38
2023-03-15T18:25:27.860Z,5.43
2023-03-15T18:27:55.720Z,8.02
2023-03-15T18:30:25.374Z,6.78
2023-03-15T18:32:57.651Z,4.20
2023-03-15T18:35:26.037Z,5.00
2023-03-15T18:38:31.017Z,11.63
2023-03-15T18:48:39.727Z,13.40
2023-03-15T18:51:09.997Z,12.90
2023-03-15T18:53:37.124Z,14.80
2023-03-15T18:56:05.076Z,12.50
2023-03-15T18:58:32.372Z,11.00
2023-03-15T19:00:59.617Z,10.18
2023-03-15T19:03:27.088Z,18.70
2023-03-15T19:05:54.278Z,8.98
2023-03-15T19:08:21.487Z,10.23
2023-03-15T19:10:48.675Z,14.63
2023-03-15T19:13:16.130Z,16.75
2023-03-15T19:15:44.090Z,17.55
2023-03-15T19:18:11.330Z,16.58
2023-03-15T19:20:38.495Z,16.55
2023-03-15T19:23:05.839Z,13.88
2023-03-15T19:25:32.945Z,17.02
2023-03-15T19:28:00.146Z,14.82
2023-03-15T19:30:27.596Z,16.45
2023-03-15T19:32:55.018Z,22.15
2023-03-15T19:35:22.494Z,17.23
2023-03-15T19:37:49.590Z,16.27
2023-03-15T19:40:17.761Z,16.88
2023-03-15T19:42:45.611Z,16.77
2023-03-15T19:45:13.266Z,20.48
2023-03-15T19:47:40.707Z,19.75
2023-03-15T19:50:08.758Z,15.00
2023-03-15T19:52:38.709Z,11.25
2023-03-15T19:55:08.012Z,15.00
2023-03-15T19:57:35.144Z,9.63
2023-03-15T20:00:02.277Z,9.85
2023-03-15T20:02:31.835Z,9.95
2023-03-15T20:05:00.297Z,15.18
2023-03-15T20:07:27.446Z,10.20
2023-03-15T20:09:54.686Z,12.98
2023-03-15T20:12:21.818Z,13.07
2023-03-15T20:14:49.856Z,13.00
2023-03-15T20:17:17.457Z,12.43
2023-03-15T20:19:44.616Z,10.80
2023-03-15T20:22:11.769Z,13.23
2023-03-15T20:24:40.649Z,10.05
2023-03-15T20:27:07.810Z,7.63
2023-03-15T20:29:35.111Z,9.70
2023-03-15T20:32:02.257Z,10.13
2023-03-15T20:34:29.395Z,9.38
2023-03-15T20:36:56.540Z,8.77
2023-03-15T20:39:26.775Z,8.27
2023-03-15T20:41:53.980Z,9.38
2023-03-15T20:44:21.175Z,9.32
2023-03-15T20:46:48.432Z,10.90
2023-03-15T20:49:17.473Z,11.55
2023-03-15T20:51:44.714Z,10.02
2023-03-15T20:54:11.868Z,18.83
2023-03-15T20:56:42.281Z,25.35
2023-03-15T20:59:09.757Z,22.60
2023-03-15T21:01:37.069Z,31.65
2023-03-15T21:04:04.616Z,16.13
2023-03-15T21:06:32.342Z,25.23
2023-03-15T21:08:59.890Z,14.68
2023-03-15T21:11:27.738Z,15.68
2023-03-15T21:13:55.342Z,12.80
2023-03-15T21:16:25.579Z,13.30
2023-03-15T21:18:55.000Z,14.02
2023-03-15T21:21:25.407Z,9.50
2023-03-15T21:23:53.287Z,8.30
2023-03-15T21:26:21.355Z,9.13
2023-03-15T21:28:48.869Z,11.20
2023-03-15T21:31:16.573Z,10.18
2023-03-15T21:33:44.141Z,10.13
2023-03-15T21:36:11.852Z,10.48
2023-03-15T21:38:39.342Z,8.57
2023-03-15T21:41:08.067Z,10.48
2023-03-15T21:43:35.637Z,12.70
2023-03-15T21:46:04.245Z,12.77
2023-03-15T21:48:32.420Z,12.48
2023-03-15T21:50:59.997Z,8.30
2023-03-15T21:53:27.138Z,7.55
2023-03-15T21:55:56.176Z,8.05
2023-03-15T21:58:23.375Z,8.68
2023-03-15T22:00:50.556Z,12.05
2023-03-15T22:03:17.829Z,8.70
2023-03-15T22:05:46.506Z,10.30
2023-03-15T22:08:13.630Z,9.15
2023-03-15T22:10:40.831Z,9.90
2023-03-15T22:13:10.248Z,10.68
2023-03-15T22:15:37.420Z,13.00
2023-03-15T22:18:04.540Z,7.78
2023-03-15T22:20:31.642Z,9.30
2023-03-15T22:22:58.782Z,7.50
2023-03-15T22:25:25.921Z,7.22
2023-03-15T22:27:53.072Z,8.38
2023-03-15T22:30:20.278Z,9.05
2023-03-15T22:32:47.470Z,9.98
2023-03-15T22:35:15.946Z,7.50
2023-03-15T22:37:43.592Z,11.63
2023-03-15T22:40:14.132Z,8.75
2023-03-15T22:42:41.858Z,7.82
2023-03-15T22:45:09.340Z,11.95
2023-03-15T22:47:36.621Z,9.77
2023-03-15T22:50:03.828Z,7.88
2023-03-15T22:52:30.928Z,9.50
2023-03-15T22:54:58.017Z,10.02
2023-03-15T22:57:25.171Z,7.22
2023-03-15T22:59:52.287Z,9.35
2023-03-15T23:02:19.527Z,8.88
2023-03-15T23:04:46.843Z,10.93
2023-03-15T23:07:14.180Z,9.88
2023-03-15T23:09:41.286Z,8.60
2023-03-15T23:12:08.674Z,10.70
2023-03-15T23:14:36.186Z,8.63
2023-03-15T23:17:04.237Z,8.90
2023-03-15T23:19:34.361Z,9.05
2023-03-15T23:22:04.270Z,10.43
2023-03-15T23:24:33.915Z,9.77
2023-03-15T23:27:03.645Z,10.63
2023-03-15T23:29:47.088Z,8.25
2023-03-15T23:32:20.863Z,11.98
2023-03-15T23:34:48.124Z,7.75
2023-03-15T23:37:15.405Z,8.40
2023-03-15T23:39:42.719Z,7.95
2023-03-15T23:42:10.516Z,10.13
2023-03-15T23:44:37.760Z,10.18
2023-03-15T23:47:05.785Z,10.05
2023-03-15T23:49:33.674Z,8.25
2023-03-15T23:52:05.721Z,5.95
2023-03-15T23:54:39.543Z,7.55
2023-03-15T23:57:07.774Z,7.60
2023-03-15T23:59:38.415Z,7.50
